createdAt,value
2022-07-29T00:02:26.561Z,100746.44
2022-07-29T00:04:53.497Z,100739.56
2022-07-29T00:07:20.348Z,100738.34
2022-07-29T00:09:51.951Z,100739.19
2022-07-29T00:12:26.235Z,100742.69
2022-07-29T00:14:57.532Z,100742.84
2022-07-29T00:17:27.411Z,100740.78
2022-07-29T00:19:54.195Z,100736.75
2022-07-29T00:22:21.586Z,100745.34
2022-07-29T00:24:50.229Z,100739.34
2022-07-29T00:27:17.910Z,100737.03
2022-07-29T00:29:44.529Z,100728.34
2022-07-29T00:32:11.156Z,100736.09
2022-07-29T00:34:56.609Z,100731.81
2022-07-29T00:37:23.401Z,100738.81
2022-07-29T00:39:50.202Z,100739.22
2022-07-29T00:42:17.575Z,100744.13
2022-07-29T00:44:44.868Z,100759.84
2022-07-29T00:47:12.963Z,100750.34
2022-07-29T00:49:43.335Z,100751.44
2022-07-29T00:52:11.489Z,100738.72
2022-07-29T00:54:44.182Z,100737.19
2022-07-29T00:57:12.625Z,100725.47
2022-07-29T00:59:39.344Z,100725.31
2022-07-29T01:02:06.508Z,100728.81
2022-07-29T01:04:33.979Z,100738.66
2022-07-29T01:07:03.016Z,100742.38
2022-07-29T01:09:42.787Z,100736.88
2022-07-29T01:12:18.343Z,100729.25
2022-07-29T01:14:46.788Z,100724.00
2022-07-29T01:17:16.458Z,100738.94
2022-07-29T01:19:57.092Z,100737.34
2022-07-29T01:22:35.879Z,100750.91
2022-07-29T01:25:35.552Z,100750.91
2022-07-29T01:28:18.493Z,100741.75
2022-07-29T01:30:47.784Z,100722.19
2022-07-29T01:33:38.426Z,100738.13
2022-07-29T01:36:11.824Z,100736.88
2022-07-29T01:38:42.468Z,100745.44
2022-07-29T01:41:17.581Z,100742.63
2022-07-29T01:43:55.792Z,100750.09
2022-07-29T01:46:33.053Z,100745.38
2022-07-29T01:49:07.905Z,100738.28
2022-07-29T01:51:42.870Z,100727.00
2022-07-29T01:54:22.132Z,100745.72
2022-07-29T01:56:52.012Z,100732.84
2022-07-29T01:59:20.097Z,100744.69
2022-07-29T02:01:49.536Z,100737.13
2022-07-29T02:04:28.906Z,100730.78
2022-07-29T02:07:02.012Z,100736.69
2022-07-29T02:09:31.322Z,100738.72
2022-07-29T02:12:00.565Z,100737.81
2022-07-29T02:14:31.504Z,100734.63
2022-07-29T02:17:02.048Z,100741.56
2022-07-29T02:19:30.396Z,100728.91
2022-07-29T02:21:58.668Z,100742.19
2022-07-29T02:24:27.485Z,100733.03
2022-07-29T02:26:57.462Z,100741.59
2022-07-29T02:29:27.241Z,100747.50
2022-07-29T02:31:56.349Z,100730.19
2022-07-29T02:34:24.430Z,100744.50
2022-07-29T02:36:52.551Z,100749.97
2022-07-29T02:39:20.671Z,100752.53
2022-07-29T02:41:56.230Z,100755.88
2022-07-29T02:44:27.327Z,100757.09
2022-07-29T02:47:41.871Z,100752.16
2022-07-29T02:50:12.454Z,100747.69
2022-07-29T02:52:45.061Z,100730.06
2022-07-29T02:55:20.192Z,100742.50
2022-07-29T02:58:02.517Z,100746.13
2022-07-29T03:00:32.522Z,100742.53
2022-07-29T03:03:03.301Z,100745.06
2022-07-29T03:05:30.766Z,100747.78
2022-07-29T03:08:02.173Z,100764.63
2022-07-29T03:10:29.373Z,100750.91
2022-07-29T03:12:57.526Z,100752.00
2022-07-29T03:15:26.865Z,100744.00
2022-07-29T03:17:54.825Z,100751.19
2022-07-29T03:20:22.056Z,100753.75
2022-07-29T03:22:49.135Z,100756.19
2022-07-29T03:25:17.512Z,100754.97
2022-07-29T03:27:45.320Z,100758.75
2022-07-29T03:30:18.320Z,100762.59
2022-07-29T03:32:48.673Z,100736.97
2022-07-29T03:35:17.616Z,100746.28
2022-07-29T03:37:47.823Z,100739.19
2022-07-29T03:40:36.847Z,100760.59
2022-07-29T03:43:04.631Z,100754.31
2022-07-29T03:45:32.894Z,100759.78
2022-07-29T03:48:03.300Z,100750.81
2022-07-29T03:50:31.695Z,100749.94
2022-07-29T03:52:59.127Z,100748.75
2022-07-29T03:55:27.577Z,100741.84
2022-07-29T03:57:54.536Z,100749.06
2022-07-29T04:00:21.559Z,100749.41
2022-07-29T04:02:49.816Z,100750.00
2022-07-29T04:05:17.726Z,100761.97
2022-07-29T04:07:45.939Z,100750.03
2022-07-29T04:10:12.835Z,100759.84
2022-07-29T04:12:39.605Z,100770.53
2022-07-29T04:15:06.802Z,100760.16
2022-07-29T04:17:33.428Z,100773.19
2022-07-29T04:20:00.217Z,100781.38
2022-07-29T04:22:26.890Z,100777.59
2022-07-29T04:24:54.214Z,100780.69
2022-07-29T04:27:20.808Z,100774.19
2022-07-29T04:29:57.389Z,100781.50
2022-07-29T04:32:25.140Z,100788.63
2022-07-29T04:34:51.937Z,100804.38
2022-07-29T04:37:18.592Z,100799.94
2022-07-29T04:39:45.417Z,100799.66
2022-07-29T04:42:12.086Z,100792.00
2022-07-29T04:44:42.985Z,100800.34
2022-07-29T04:47:10.474Z,100805.31
2022-07-29T04:49:39.681Z,100810.56
2022-07-29T04:52:07.197Z,100819.81
2022-07-29T04:54:34.269Z,100818.06
2022-07-29T04:57:00.931Z,100823.13
2022-07-29T04:59:28.067Z,100824.34
2022-07-29T05:01:55.049Z,100832.38
2022-07-29T05:04:21.781Z,100813.19
2022-07-29T05:06:48.675Z,100798.50
2022-07-29T05:09:15.430Z,100819.94
2022-07-29T05:11:42.224Z,100833.63
2022-07-29T05:14:08.843Z,100834.13
2022-07-29T05:16:36.222Z,100834.88
2022-07-29T05:19:02.862Z,100847.03
2022-07-29T05:21:29.887Z,100855.63
2022-07-29T05:23:56.486Z,100849.16
2022-07-29T05:26:23.217Z,100864.00
2022-07-29T05:28:50.294Z,100858.56
2022-07-29T05:31:17.469Z,100852.84
2022-07-29T05:33:44.333Z,100864.47
2022-07-29T05:36:11.130Z,100863.66
2022-07-29T05:38:37.779Z,100858.97
2022-07-29T05:41:07.733Z,100850.69
2022-07-29T05:43:34.324Z,100864.41
2022-07-29T05:46:01.507Z,100865.00
2022-07-29T05:48:28.308Z,100856.13
2022-07-29T05:50:55.466Z,100874.63
2022-07-29T05:53:22.157Z,100871.19
2022-07-29T05:55:49.837Z,100857.75
2022-07-29T05:58:16.596Z,100859.16
2022-07-29T06:00:43.154Z,100861.06
2022-07-29T06:03:09.755Z,100860.75
2022-07-29T06:05:36.329Z,100872.78
2022-07-29T06:08:04.020Z,100861.59
2022-07-29T06:10:30.664Z,100854.25
2022-07-29T06:12:57.482Z,100862.44
2022-07-29T06:15:24.048Z,100853.34
2022-07-29T06:18:00.307Z,100861.69
2022-07-29T06:20:31.136Z,100857.38
2022-07-29T06:22:58.571Z,100863.66
2022-07-29T06:25:25.119Z,100865.19
2022-07-29T06:27:51.667Z,100865.19
2022-07-29T06:30:18.276Z,100858.00
2022-07-29T06:32:44.854Z,100857.34
2022-07-29T06:35:37.795Z,100852.81
2022-07-29T06:37:59.666Z,100846.56
2022-07-29T06:40:45.229Z,100845.28
2022-07-29T06:43:11.834Z,100852.47
2022-07-29T06:45:42.150Z,100854.78
2022-07-29T06:48:09.127Z,100856.75
2022-07-29T06:50:35.735Z,100843.09
2022-07-29T06:53:02.421Z,100863.41
2022-07-29T06:55:29.010Z,100865.31
2022-07-29T06:57:55.641Z,100866.31
2022-07-29T07:00:22.314Z,100866.38
2022-07-29T07:02:49.047Z,100868.00
2022-07-29T07:05:15.632Z,100867.00
2022-07-29T07:07:42.278Z,100875.91
2022-07-29T07:10:09.289Z,100872.44
2022-07-29T07:12:35.883Z,100878.38
2022-07-29T07:15:02.601Z,100874.09
2022-07-29T07:17:29.175Z,100886.28
2022-07-29T07:19:56.012Z,100886.84
2022-07-29T07:22:22.614Z,100877.59
2022-07-29T07:24:49.233Z,100886.72
2022-07-29T07:27:15.807Z,100885.00
2022-07-29T07:29:44.009Z,100880.34
2022-07-29T07:32:11.224Z,100884.75
2022-07-29T07:34:39.040Z,100882.91
2022-07-29T07:37:06.628Z,100887.25
2022-07-29T07:39:33.135Z,100895.41
2022-07-29T07:42:00.101Z,100888.97
2022-07-29T07:44:26.930Z,100898.44
2022-07-29T07:46:54.662Z,100897.00
2022-07-29T07:49:21.806Z,100905.09
2022-07-29T07:51:50.680Z,100905.97
2022-07-29T07:54:20.526Z,100900.44
2022-07-29T07:56:50.332Z,100894.53
2022-07-29T07:59:19.808Z,100892.78
2022-07-29T08:01:48.089Z,100888.31
2022-07-29T08:04:26.890Z,100882.91
2022-07-29T08:06:57.790Z,100882.22
2022-07-29T08:09:29.675Z,100888.03
2022-07-29T08:11:58.589Z,100888.44
2022-07-29T08:14:25.305Z,100881.13
2022-07-29T08:16:52.590Z,100876.19
2022-07-29T08:19:19.341Z,100869.94
2022-07-29T08:21:46.372Z,100859.47
2022-07-29T08:24:31.587Z,100854.47
2022-07-29T08:26:58.400Z,100851.41
2022-07-29T08:29:25.068Z,100866.34
2022-07-29T08:31:52.177Z,100855.88
2022-07-29T08:34:18.902Z,100867.78
2022-07-29T08:36:52.664Z,100862.31
2022-07-29T08:39:19.268Z,100854.81
2022-07-29T08:41:56.868Z,100868.25
2022-07-29T08:44:30.600Z,100868.66
2022-07-29T08:46:57.996Z,100868.63
2022-07-29T08:49:24.807Z,100853.75
2022-07-29T08:51:52.706Z,100865.59
2022-07-29T08:54:19.975Z,100857.22
2022-07-29T08:56:49.566Z,100866.50
2022-07-29T08:59:19.430Z,100850.22
2022-07-29T09:01:48.920Z,100858.91
2022-07-29T09:04:17.322Z,100851.88
2022-07-29T09:06:47.278Z,100861.69
2022-07-29T09:09:14.736Z,100864.66
2022-07-29T09:11:43.217Z,100857.88
2022-07-29T09:14:12.298Z,100857.03
2022-07-29T09:16:53.411Z,100871.56
2022-07-29T09:19:35.776Z,100856.72
2022-07-29T09:22:08.193Z,100850.78
2022-07-29T09:24:35.349Z,100854.25
2022-07-29T09:27:03.023Z,100848.22
2022-07-29T09:29:33.297Z,100848.88
2022-07-29T09:32:07.655Z,100830.44
2022-07-29T09:34:34.390Z,100821.38
2022-07-29T09:37:00.965Z,100815.91
2022-07-29T09:39:34.937Z,100821.97
2022-07-29T09:42:04.738Z,100815.97
2022-07-29T09:44:49.184Z,100827.94
2022-07-29T09:47:17.262Z,100833.97
2022-07-29T09:50:01.165Z,100831.88
2022-07-29T09:52:28.969Z,100825.03
2022-07-29T09:55:09.420Z,100828.91
2022-07-29T09:57:37.683Z,100828.25
2022-07-29T10:00:09.627Z,100827.44
2022-07-29T10:02:38.331Z,100813.53
2022-07-29T10:05:07.383Z,100811.09
2022-07-29T10:07:54.194Z,100816.22
2022-07-29T10:10:24.937Z,100816.97
2022-07-29T10:12:57.574Z,100810.75
2022-07-29T10:15:29.324Z,100808.19
2022-07-29T10:17:57.329Z,100813.25
2022-07-29T10:20:24.870Z,100816.06
2022-07-29T10:22:53.982Z,100814.16
2022-07-29T10:25:21.608Z,100813.41
2022-07-29T10:27:49.536Z,100800.59
2022-07-29T10:30:17.544Z,100792.28
2022-07-29T10:32:59.089Z,100795.81
2022-07-29T10:35:45.314Z,100804.47
2022-07-29T10:38:28.784Z,100796.66
2022-07-29T10:41:36.269Z,100798.72
2022-07-29T10:44:19.365Z,100793.63
2022-07-29T10:46:46.914Z,100785.72
2022-07-29T10:49:16.392Z,100785.03
2022-07-29T10:52:13.126Z,100780.66
2022-07-29T10:54:46.192Z,100779.25
2022-07-29T10:57:53.489Z,100774.91
2022-07-29T11:00:28.154Z,100780.59
2022-07-29T11:02:57.570Z,100773.94
2022-07-29T11:05:32.189Z,100767.81
2022-07-29T11:08:21.038Z,100769.31
2022-07-29T11:11:15.736Z,100745.75
2022-07-29T11:13:51.515Z,100755.25
2022-07-29T11:16:23.076Z,100755.03
2022-07-29T11:19:14.074Z,100748.97
2022-07-29T11:21:54.145Z,100745.31
2022-07-29T11:24:32.178Z,100750.06
2022-07-29T11:27:20.966Z,100750.72
2022-07-29T11:29:50.740Z,100750.03
2022-07-29T11:32:23.173Z,100751.81
2022-07-29T11:35:16.619Z,100741.66
2022-07-29T11:37:50.802Z,100735.13
2022-07-29T11:40:22.992Z,100736.75
2022-07-29T11:42:50.295Z,100742.16
2022-07-29T11:45:42.155Z,100746.09
2022-07-29T11:48:29.901Z,100725.28
2022-07-29T11:50:59.627Z,100738.06
2022-07-29T11:53:28.960Z,100734.09
2022-07-29T11:56:00.208Z,100731.53
2022-07-29T11:58:28.325Z,100737.78
2022-07-29T12:00:56.302Z,100726.19
2022-07-29T12:03:35.455Z,100739.59
2022-07-29T12:06:12.262Z,100731.16
2022-07-29T12:08:44.469Z,100735.50
2022-07-29T12:11:21.275Z,100729.19
2022-07-29T12:13:49.227Z,100728.06
2022-07-29T12:16:16.706Z,100722.53
2022-07-29T12:19:00.333Z,100725.34
2022-07-29T12:21:28.732Z,100721.88
2022-07-29T12:24:01.858Z,100715.63
2022-07-29T12:26:31.815Z,100714.81
2022-07-29T12:29:03.109Z,100717.53
2022-07-29T12:31:41.954Z,100711.28
2022-07-29T12:34:12.893Z,100718.44
2022-07-29T12:36:39.590Z,100703.03
2022-07-29T12:39:06.327Z,100691.78
2022-07-29T12:41:33.335Z,100688.09
2022-07-29T12:43:59.984Z,100695.75
2022-07-29T12:46:27.083Z,100697.31
2022-07-29T12:48:59.744Z,100686.00
2022-07-29T12:51:44.425Z,100688.28
2022-07-29T12:54:14.422Z,100691.84
2022-07-29T12:56:44.174Z,100680.72
2022-07-29T12:59:19.864Z,100684.13
2022-07-29T13:01:51.749Z,100679.25
2022-07-29T13:04:32.866Z,100685.78
2022-07-29T13:07:04.930Z,100681.41
2022-07-29T13:10:30.438Z,100676.78
2022-07-29T13:13:07.014Z,100669.22
2022-07-29T13:15:34.370Z,100661.78
2022-07-29T13:18:01.493Z,100649.34
2022-07-29T13:20:33.637Z,100646.19
2022-07-29T13:23:01.655Z,100632.72
2022-07-29T13:25:33.042Z,100630.81
2022-07-29T13:28:00.728Z,100624.63
2022-07-29T13:30:27.345Z,100612.56
2022-07-29T13:32:54.410Z,100611.03
2022-07-29T13:35:21.402Z,100612.56
2022-07-29T13:37:48.248Z,100612.47
2022-07-29T13:40:15.700Z,100605.22
2022-07-29T13:42:43.040Z,100609.38
2022-07-29T13:45:11.765Z,100597.03
2022-07-29T13:47:38.839Z,100599.63
2022-07-29T13:50:07.016Z,100594.38
2022-07-29T13:52:34.468Z,100593.03
2022-07-29T13:55:01.205Z,100590.75
2022-07-29T13:57:28.036Z,100594.69
2022-07-29T13:59:54.802Z,100583.50
2022-07-29T14:02:25.474Z,100578.44
2022-07-29T14:04:55.701Z,100575.22
2022-07-29T14:07:23.154Z,100567.53
2022-07-29T14:09:49.902Z,100565.47
2022-07-29T14:12:16.883Z,100569.53
2022-07-29T14:14:47.304Z,100566.94
2022-07-29T14:17:14.307Z,100561.59
2022-07-29T14:19:41.008Z,100561.97
2022-07-29T14:22:09.633Z,100564.16
2022-07-29T14:24:38.264Z,100567.03
2022-07-29T14:27:06.872Z,100574.88
2022-07-29T14:29:37.803Z,100569.66
2022-07-29T14:32:11.379Z,100581.97
2022-07-29T14:34:38.782Z,100574.47
2022-07-29T14:37:06.968Z,100570.81
2022-07-29T14:39:42.641Z,100581.88
2022-07-29T14:42:12.634Z,100575.69
2022-07-29T14:44:39.942Z,100569.97
2022-07-29T14:47:08.040Z,100571.41
2022-07-29T14:49:35.861Z,100573.34
2022-07-29T14:52:02.927Z,100575.91
2022-07-29T14:54:29.544Z,100573.75
2022-07-29T14:56:58.168Z,100578.84
2022-07-29T14:59:25.583Z,100568.47
2022-07-29T15:01:52.303Z,100569.59
2022-07-29T15:04:18.978Z,100550.69
2022-07-29T15:06:45.529Z,100561.63
2022-07-29T15:09:12.146Z,100563.84
2022-07-29T15:11:39.024Z,100570.81
2022-07-29T15:14:06.739Z,100559.56
2022-07-29T15:16:33.814Z,100558.84
2022-07-29T15:19:01.196Z,100553.84
2022-07-29T15:21:28.547Z,100565.94
2022-07-29T15:23:55.219Z,100563.81
2022-07-29T15:26:22.094Z,100562.00
2022-07-29T15:28:48.903Z,100556.91
2022-07-29T15:31:16.055Z,100559.25
2022-07-29T15:33:42.957Z,100558.53
2022-07-29T15:36:09.671Z,100555.72
2022-07-29T15:38:40.488Z,100569.38
2022-07-29T15:41:08.986Z,100575.13
2022-07-29T15:43:38.858Z,100572.50
2022-07-29T15:46:23.836Z,100574.41
2022-07-29T15:48:50.611Z,100569.81
2022-07-29T15:51:17.325Z,100583.63
2022-07-29T15:53:43.970Z,100587.03
2022-07-29T15:56:20.960Z,100586.31
2022-07-29T15:58:47.639Z,100590.25
2022-07-29T16:01:14.727Z,100584.53
2022-07-29T16:03:45.966Z,100599.31
2022-07-29T16:06:13.555Z,100601.53
2022-07-29T16:08:40.267Z,100603.22
2022-07-29T16:11:07.033Z,100612.41
2022-07-29T16:13:33.804Z,100604.69
2022-07-29T16:16:02.653Z,100606.09
2022-07-29T16:18:30.649Z,100594.50
2022-07-29T16:20:57.756Z,100589.22
2022-07-29T16:23:24.781Z,100590.16
2022-07-29T16:25:59.577Z,100588.81
2022-07-29T16:28:27.910Z,100585.81
2022-07-29T16:30:54.655Z,100587.25
2022-07-29T16:33:21.213Z,100581.97
2022-07-29T16:35:47.981Z,100576.13
2022-07-29T16:38:14.672Z,100579.19
2022-07-29T16:40:42.116Z,100583.34
2022-07-29T16:43:09.096Z,100576.09
2022-07-29T16:45:42.559Z,100584.09
2022-07-29T16:48:15.458Z,100598.19
2022-07-29T16:50:44.927Z,100604.53
2022-07-29T16:53:11.664Z,100614.44
2022-07-29T16:55:38.670Z,100610.00
2022-07-29T16:58:09.599Z,100607.50
2022-07-29T17:00:36.592Z,100606.56
2022-07-29T17:03:03.339Z,100616.53
2022-07-29T17:05:29.918Z,100611.22
2022-07-29T17:08:16.808Z,100616.47
2022-07-29T17:10:43.416Z,100617.31
2022-07-29T17:13:10.898Z,100616.69
2022-07-29T17:15:37.539Z,100610.59
2022-07-29T17:18:12.658Z,100602.88
2022-07-29T17:20:42.036Z,100611.13
2022-07-29T17:23:08.833Z,100618.38
2022-07-29T17:25:35.571Z,100630.53
2022-07-29T17:28:02.213Z,100640.53
2022-07-29T17:30:29.803Z,100650.81
2022-07-29T17:32:56.503Z,100654.94
2022-07-29T17:35:41.748Z,100654.38
2022-07-29T17:38:08.359Z,100650.91
2022-07-29T17:40:34.985Z,100647.91
2022-07-29T17:43:01.555Z,100645.03
2022-07-29T17:45:50.303Z,100634.81
2022-07-29T17:48:14.807Z,100636.38
2022-07-29T17:50:41.445Z,100640.03
2022-07-29T17:53:09.586Z,100643.00
2022-07-29T17:55:45.210Z,100633.38
2022-07-29T17:58:12.487Z,100639.09
2022-07-29T18:00:39.353Z,100648.16
2022-07-29T18:03:06.344Z,100640.25
2022-07-29T18:05:33.145Z,100643.66
2022-07-29T18:07:59.738Z,100653.25
2022-07-29T18:10:26.588Z,100644.13
2022-07-29T18:12:53.477Z,100656.09
2022-07-29T18:15:20.259Z,100648.47
2022-07-29T18:17:57.326Z,100650.59
2022-07-29T18:20:26.219Z,100658.84
2022-07-29T18:22:52.793Z,100655.22
2022-07-29T18:25:19.512Z,100651.88
2022-07-29T18:27:46.230Z,100655.03
2022-07-29T18:30:14.965Z,100652.31
2022-07-29T18:32:54.306Z,100668.09
2022-07-29T18:35:28.884Z,100665.25
2022-07-29T18:38:02.111Z,100667.44
2022-07-29T18:40:29.983Z,100667.25
2022-07-29T18:42:57.071Z,100661.06
2022-07-29T18:45:28.313Z,100664.59
2022-07-29T18:47:55.815Z,100666.34
2022-07-29T18:50:28.892Z,100672.19
2022-07-29T18:52:58.508Z,100681.97
2022-07-29T18:55:26.208Z,100684.97
2022-07-29T18:57:55.806Z,100682.47
2022-07-29T19:00:23.912Z,100691.06
2022-07-29T19:02:51.111Z,100697.41
2022-07-29T19:05:22.385Z,100696.34
2022-07-29T19:07:49.094Z,100706.03
2022-07-29T19:10:15.684Z,100711.16
2022-07-29T19:12:42.487Z,100718.97
2022-07-29T19:15:10.588Z,100738.53
2022-07-29T19:17:38.035Z,100769.03
2022-07-29T19:20:05.708Z,100785.88
2022-07-29T19:22:34.318Z,100779.69
2022-07-29T19:25:01.191Z,100753.44
2022-07-29T19:27:27.884Z,100772.66
2022-07-29T19:29:59.006Z,100754.25
2022-07-29T19:32:26.479Z,100728.19
2022-07-29T19:35:11.590Z,100712.41
2022-07-29T19:37:38.153Z,100730.13
2022-07-29T19:40:06.642Z,100732.06
2022-07-29T19:42:33.780Z,100707.78
2022-07-29T19:45:00.372Z,100717.09
2022-07-29T19:47:27.063Z,100723.09
2022-07-29T19:49:53.740Z,100727.72
2022-07-29T19:52:20.384Z,100732.88
2022-07-29T19:54:47.088Z,100730.97
2022-07-29T19:57:13.644Z,100751.19
2022-07-29T19:59:41.047Z,100755.47
2022-07-29T20:02:10.857Z,100764.44
2022-07-29T20:04:37.880Z,100767.69
2022-07-29T20:07:05.317Z,100773.88
2022-07-29T20:09:31.927Z,100777.13
2022-07-29T20:11:58.796Z,100775.94
2022-07-29T20:14:25.417Z,100789.09
2022-07-29T20:16:54.433Z,100790.75
2022-07-29T20:19:21.369Z,100789.78
2022-07-29T20:21:48.069Z,100792.63
2022-07-29T20:24:14.791Z,100792.09
2022-07-29T20:29:08.296Z,100810.06
2022-07-29T20:31:36.386Z,100829.91
2022-07-29T20:34:03.321Z,100823.66
2022-07-29T20:36:32.725Z,100822.19
2022-07-29T20:39:02.272Z,100809.84
2022-07-29T20:41:29.178Z,100803.38
2022-07-29T20:43:56.297Z,100796.06
2022-07-29T20:46:28.355Z,100796.03
2022-07-29T20:48:55.317Z,100800.31
2022-07-29T20:51:24.504Z,100810.97
2022-07-29T20:53:51.255Z,100801.53
2022-07-29T20:56:18.031Z,100786.88
2022-07-29T20:58:44.786Z,100777.63
2022-07-29T21:01:11.703Z,100779.06
2022-07-29T21:03:38.346Z,100761.91
2022-07-29T21:06:05.025Z,100761.81
2022-07-29T21:08:34.030Z,100764.41
2022-07-29T21:11:01.053Z,100766.09
2022-07-29T21:13:27.927Z,100778.91
2022-07-29T21:15:59.089Z,100766.72
2022-07-29T21:18:33.027Z,100777.47
2022-07-29T21:21:04.018Z,100774.00
2022-07-29T21:23:31.090Z,100768.34
2022-07-29T21:25:58.450Z,100762.34
2022-07-29T21:28:29.006Z,100761.06
2022-07-29T21:31:00.939Z,100770.66
2022-07-29T21:33:29.381Z,100769.13
2022-07-29T21:36:42.796Z,100773.00
2022-07-29T21:38:42.961Z,100772.41
2022-07-29T21:41:12.490Z,100764.41
2022-07-29T21:43:41.941Z,100772.72
2022-07-29T21:46:09.540Z,100766.44
2022-07-29T21:48:37.641Z,100771.31
2022-07-29T21:51:06.656Z,100765.66
2022-07-29T21:53:33.324Z,100771.72
2022-07-29T21:56:00.370Z,100758.56
2022-07-29T21:58:26.980Z,100762.34
2022-07-29T22:00:54.022Z,100768.63
2022-07-29T22:03:21.994Z,100777.47
2022-07-29T22:05:49.026Z,100773.63
2022-07-29T22:08:15.609Z,100777.16
2022-07-29T22:10:42.159Z,100762.50
2022-07-29T22:13:09.046Z,100767.69
2022-07-29T22:15:35.679Z,100752.91
2022-07-29T22:18:02.383Z,100754.19
2022-07-29T22:20:29.062Z,100752.53
2022-07-29T22:22:55.637Z,100747.78
2022-07-29T22:25:23.074Z,100748.03
2022-07-29T22:27:49.652Z,100746.81
2022-07-29T22:30:16.968Z,100741.41
2022-07-29T22:32:44.074Z,100735.53
2022-07-29T22:35:10.917Z,100725.84
2022-07-29T22:37:37.657Z,100724.09
2022-07-29T22:40:05.125Z,100716.78
2022-07-29T22:42:31.934Z,100709.47
2022-07-29T22:44:58.652Z,100706.72
2022-07-29T22:47:46.256Z,100710.84
2022-07-29T22:50:12.153Z,100711.19
2022-07-29T22:52:38.764Z,100719.97
2022-07-29T22:55:05.751Z,100713.41
2022-07-29T22:57:32.521Z,100714.50
2022-07-29T23:00:01.723Z,100714.50
2022-07-29T23:02:28.692Z,100709.00
2022-07-29T23:04:55.417Z,100706.13
2022-07-29T23:07:22.224Z,100716.03
2022-07-29T23:09:48.917Z,100696.59
2022-07-29T23:12:15.556Z,100685.19
2022-07-29T23:14:42.300Z,100696.06
2022-07-29T23:17:08.882Z,100690.81
2022-07-29T23:19:35.534Z,100687.97
2022-07-29T23:22:02.199Z,100682.94
2022-07-29T23:24:28.754Z,100684.03
2022-07-29T23:26:55.381Z,100663.59
2022-07-29T23:29:22.218Z,100659.72
2022-07-29T23:31:48.835Z,100666.44
2022-07-29T23:34:15.596Z,100668.00
2022-07-29T23:36:42.536Z,100667.69
2022-07-29T23:39:13.329Z,100671.66
2022-07-29T23:41:40.202Z,100675.94
2022-07-29T23:44:07.059Z,100684.63
2022-07-29T23:46:33.983Z,100674.28
2022-07-29T23:49:00.819Z,100677.47
2022-07-29T23:51:29.244Z,100664.59
2022-07-29T23:53:56.070Z,100672.16
2022-07-29T23:56:23.405Z,100676.34
2022-07-29T23:58:50.227Z,100674.50
